createdAt,value
2022-10-09T00:02:12.595Z,82.97
2022-10-09T00:04:39.344Z,82.95
2022-10-09T00:07:07.884Z,83.37
2022-10-09T00:09:36.552Z,83.82
2022-10-09T00:12:02.993Z,83.67
2022-10-09T00:14:29.470Z,83.59
2022-10-09T00:17:09.323Z,83.51
2022-10-09T00:19:41.041Z,83.63
2022-10-09T00:22:07.487Z,83.71
2022-10-09T00:24:44.238Z,83.57
2022-10-09T00:27:10.680Z,83.39
2022-10-09T00:29:37.227Z,83.71
2022-10-09T00:32:03.781Z,83.56
2022-10-09T00:34:40.345Z,83.81
2022-10-09T00:37:07.126Z,83.88
2022-10-09T00:39:33.753Z,83.32
2022-10-09T00:42:01.018Z,83.51
2022-10-09T00:44:48.305Z,83.57
2022-10-09T00:47:23.871Z,83.65
2022-10-09T00:49:54.194Z,83.49
2022-10-09T00:52:24.037Z,83.68
2022-10-09T00:54:52.349Z,83.37
2022-10-09T00:57:19.330Z,83.68
2022-10-09T01:00:06.330Z,83.29
2022-10-09T01:02:32.869Z,83.31
2022-10-09T01:05:06.116Z,83.56
2022-10-09T01:07:32.441Z,83.56
2022-10-09T01:10:10.134Z,83.89
2022-10-09T01:12:42.266Z,84.06
2022-10-09T01:15:17.896Z,83.26
2022-10-09T01:17:59.421Z,84.13
2022-10-09T01:20:38.245Z,83.77
2022-10-09T01:23:32.564Z,84.15
2022-10-09T01:26:07.298Z,84.31
2022-10-09T01:29:02.632Z,83.64
2022-10-09T01:31:38.709Z,84.25
2022-10-09T01:34:13.562Z,83.59
2022-10-09T01:36:51.464Z,83.99
2022-10-09T01:39:21.465Z,83.81
2022-10-09T01:41:50.330Z,83.82
2022-10-09T01:44:18.754Z,83.56
2022-10-09T01:46:47.304Z,83.81
2022-10-09T01:49:26.932Z,83.82
2022-10-09T01:52:03.804Z,83.73
2022-10-09T01:54:46.394Z,83.69
2022-10-09T01:57:23.658Z,84.13
2022-10-09T01:59:51.969Z,83.75
2022-10-09T02:02:20.316Z,84.16
2022-10-09T02:04:49.702Z,84.01
2022-10-09T02:07:17.762Z,84.29
2022-10-09T02:09:45.830Z,84.28
2022-10-09T02:12:16.160Z,83.86
2022-10-09T02:14:44.714Z,84.41
2022-10-09T02:17:18.125Z,83.95
2022-10-09T02:20:09.085Z,83.65
2022-10-09T02:23:23.296Z,84.06
2022-10-09T02:25:50.860Z,84.05
2022-10-09T02:28:17.448Z,84.11
2022-10-09T02:31:09.118Z,84.07
2022-10-09T02:33:35.701Z,84.29
2022-10-09T02:36:02.560Z,84.23
2022-10-09T02:38:29.416Z,84.13
2022-10-09T02:41:02.406Z,84.34
2022-10-09T02:43:29.401Z,84.26
2022-10-09T02:45:55.811Z,84.65
2022-10-09T02:48:22.365Z,84.73
2022-10-09T02:51:08.312Z,84.37
2022-10-09T02:53:34.873Z,84.32
2022-10-09T02:56:01.406Z,84.43
2022-10-09T02:58:31.063Z,84.54
2022-10-09T03:00:57.873Z,84.59
2022-10-09T03:03:38.655Z,84.40
2022-10-09T03:06:10.444Z,84.49
2022-10-09T03:08:39.652Z,84.53
2022-10-09T03:11:06.617Z,84.38
2022-10-09T03:13:39.826Z,84.05
2022-10-09T03:16:29.303Z,84.19
2022-10-09T03:18:56.052Z,84.12
2022-10-09T03:21:27.933Z,83.85
2022-10-09T03:23:54.811Z,84.18
2022-10-09T03:26:24.345Z,83.84
2022-10-09T03:28:52.250Z,84.08
2022-10-09T03:31:50.040Z,83.45
2022-10-09T03:34:08.333Z,83.77
2022-10-09T03:36:34.733Z,83.76
2022-10-09T03:39:07.251Z,83.62
2022-10-09T03:41:35.740Z,83.70
2022-10-09T03:44:07.315Z,83.98
2022-10-09T03:46:45.226Z,83.52
2022-10-09T03:49:11.623Z,83.71
2022-10-09T03:51:38.141Z,83.86
2022-10-09T03:54:04.881Z,83.76
2022-10-09T03:56:34.431Z,83.61
2022-10-09T03:59:00.893Z,83.84
2022-10-09T04:01:44.629Z,83.65
2022-10-09T04:04:11.021Z,84.03
2022-10-09T04:06:38.476Z,83.92
2022-10-09T04:09:18.285Z,83.84
2022-10-09T04:11:44.679Z,83.78
2022-10-09T04:14:11.120Z,83.85
2022-10-09T04:16:37.802Z,83.84
2022-10-09T04:19:04.303Z,83.83
2022-10-09T04:21:30.695Z,84.27
2022-10-09T04:23:57.090Z,83.80
2022-10-09T04:26:23.483Z,84.04
2022-10-09T04:28:50.010Z,83.59
2022-10-09T04:31:16.444Z,83.99
2022-10-09T04:34:21.177Z,84.03
2022-10-09T04:36:47.629Z,84.02
2022-10-09T04:39:14.008Z,83.94
2022-10-09T04:41:40.460Z,84.50
2022-10-09T04:44:06.917Z,84.73
2022-10-09T04:46:40.380Z,84.20
2022-10-09T04:49:13.013Z,84.25
2022-10-09T04:51:39.549Z,84.08
2022-10-09T04:54:06.296Z,84.58
2022-10-09T04:56:32.838Z,84.10
2022-10-09T04:59:01.276Z,84.51
2022-10-09T05:01:28.672Z,83.70
2022-10-09T05:04:13.531Z,84.13
2022-10-09T05:06:42.009Z,84.17
2022-10-09T05:09:08.392Z,84.48
2022-10-09T05:11:41.728Z,84.11
2022-10-09T05:14:11.155Z,83.87
2022-10-09T05:17:08.282Z,84.21
2022-10-09T05:19:34.826Z,84.13
2022-10-09T05:22:01.297Z,83.68
2022-10-09T05:24:28.328Z,83.92
2022-10-09T05:26:54.788Z,84.08
2022-10-09T05:29:59.059Z,84.33
2022-10-09T05:32:36.696Z,84.17
2022-10-09T05:35:04.368Z,84.07
2022-10-09T05:37:44.591Z,84.04
2022-10-09T05:40:11.342Z,83.77
2022-10-09T05:42:37.684Z,84.09
2022-10-09T05:45:09.848Z,84.28
2022-10-09T05:47:36.219Z,84.42
2022-10-09T05:50:02.765Z,84.20
2022-10-09T05:52:29.452Z,84.62
2022-10-09T05:54:57.113Z,84.42
2022-10-09T05:57:26.329Z,84.77
2022-10-09T06:00:15.882Z,84.69
2022-10-09T06:02:42.336Z,84.77
2022-10-09T06:05:10.003Z,84.95
2022-10-09T06:07:36.334Z,84.75
2022-10-09T06:10:03.482Z,84.71
2022-10-09T06:12:29.855Z,84.68
2022-10-09T06:14:58.311Z,84.60
2022-10-09T06:17:24.758Z,84.78
2022-10-09T06:19:51.108Z,84.86
2022-10-09T06:22:26.880Z,84.89
2022-10-09T06:25:06.743Z,85.18
2022-10-09T06:27:33.184Z,85.00
2022-10-09T06:30:10.189Z,84.63
2022-10-09T06:32:36.538Z,85.20
2022-10-09T06:35:10.209Z,85.19
2022-10-09T06:37:50.891Z,84.86
2022-10-09T06:40:18.249Z,85.19
2022-10-09T06:42:44.617Z,85.71
2022-10-09T06:45:21.369Z,85.43
2022-10-09T06:48:00.941Z,85.57
2022-10-09T06:50:27.398Z,85.72
2022-10-09T06:52:53.805Z,86.18
2022-10-09T06:55:32.793Z,85.49
2022-10-09T06:57:59.773Z,86.05
2022-10-09T07:00:32.102Z,85.96
2022-10-09T07:02:58.533Z,86.49
2022-10-09T07:05:24.953Z,86.30
2022-10-09T07:07:53.448Z,86.80
2022-10-09T07:10:24.926Z,86.83
2022-10-09T07:13:04.008Z,86.49
2022-10-09T07:15:30.413Z,86.85
2022-10-09T07:18:03.933Z,86.91
2022-10-09T07:20:31.356Z,87.06
2022-10-09T07:23:11.049Z,87.48
2022-10-09T07:25:43.616Z,87.21
2022-10-09T07:28:10.183Z,87.70
2022-10-09T07:30:39.801Z,87.53
2022-10-09T07:33:10.404Z,87.29
2022-10-09T07:35:41.853Z,87.29
2022-10-09T07:38:08.270Z,87.59
2022-10-09T07:40:35.552Z,87.63
2022-10-09T07:43:02.320Z,87.77
2022-10-09T07:45:28.681Z,87.66
2022-10-09T07:48:03.348Z,87.69
2022-10-09T07:50:46.980Z,87.76
2022-10-09T07:53:24.599Z,88.06
2022-10-09T07:55:50.945Z,87.89
2022-10-09T07:58:17.658Z,87.96
2022-10-09T08:01:11.773Z,87.63
2022-10-09T08:03:41.638Z,87.91
2022-10-09T08:06:08.342Z,87.71
2022-10-09T08:08:45.238Z,87.97
2022-10-09T08:11:29.808Z,88.07
2022-10-09T08:13:56.465Z,88.22
2022-10-09T08:16:28.174Z,87.85
2022-10-09T08:19:09.100Z,88.33
2022-10-09T08:21:35.535Z,87.52
2022-10-09T08:24:01.998Z,88.01
2022-10-09T08:26:30.320Z,88.59
2022-10-09T08:29:01.907Z,88.76
2022-10-09T08:31:29.231Z,88.46
2022-10-09T08:33:57.836Z,87.40
2022-10-09T08:36:25.037Z,87.20
2022-10-09T08:38:53.244Z,86.79
2022-10-09T08:41:28.835Z,86.51
2022-10-09T08:44:04.713Z,87.20
2022-10-09T08:46:44.168Z,85.86
2022-10-09T08:49:26.221Z,86.61
2022-10-09T08:52:00.233Z,85.31
2022-10-09T08:54:34.278Z,85.46
2022-10-09T08:57:04.792Z,84.69
2022-10-09T08:59:32.293Z,84.49
2022-10-09T09:02:31.310Z,84.56
2022-10-09T09:05:25.678Z,84.82
2022-10-09T09:08:11.409Z,84.72
2022-10-09T09:10:46.399Z,84.79
2022-10-09T09:17:15.034Z,84.77
2022-10-09T09:19:59.124Z,85.07
2022-10-09T09:22:27.112Z,84.79
2022-10-09T09:24:57.095Z,84.16
2022-10-09T09:27:31.958Z,84.13
2022-10-09T09:30:13.306Z,83.93
2022-10-09T09:33:17.464Z,84.29
2022-10-09T09:36:03.669Z,84.40
2022-10-09T09:38:30.143Z,83.79
2022-10-09T09:40:56.524Z,83.58
2022-10-09T09:43:25.971Z,83.37
2022-10-09T09:46:21.621Z,84.11
2022-10-09T09:48:48.868Z,83.87
2022-10-09T09:51:30.015Z,84.50
2022-10-09T09:54:04.155Z,84.37
2022-10-09T09:57:07.096Z,83.77
2022-10-09T09:59:35.613Z,84.14
2022-10-09T10:02:14.490Z,83.84
2022-10-09T10:04:57.429Z,83.24
2022-10-09T10:07:38.798Z,82.60
2022-10-09T10:10:25.716Z,82.68
2022-10-09T10:13:03.389Z,83.68
2022-10-09T10:15:32.693Z,83.29
2022-10-09T10:18:01.137Z,82.32
2022-10-09T10:20:29.756Z,82.42
2022-10-09T10:23:38.910Z,81.91
2022-10-09T10:26:35.762Z,81.63
2022-10-09T10:29:42.624Z,81.34
2022-10-09T10:32:21.554Z,79.85
2022-10-09T10:34:53.625Z,80.34
2022-10-09T10:37:23.043Z,79.83
2022-10-09T10:39:57.507Z,80.68
2022-10-09T10:43:03.377Z,80.45
2022-10-09T10:45:37.628Z,79.92
2022-10-09T10:48:08.729Z,78.62
2022-10-09T10:51:30.358Z,78.86
2022-10-09T10:54:06.169Z,78.14
2022-10-09T11:00:17.181Z,77.84
2022-10-09T11:03:09.269Z,77.29
2022-10-09T11:05:44.934Z,77.44
2022-10-09T11:08:34.948Z,76.84
2022-10-09T11:11:29.394Z,77.08
2022-10-09T11:14:23.444Z,76.38
2022-10-09T11:17:03.214Z,74.73
2022-10-09T11:20:02.016Z,74.25
2022-10-09T11:22:46.741Z,75.51
2022-10-09T11:25:16.032Z,75.94
2022-10-09T11:28:11.114Z,75.58
2022-10-09T11:30:57.710Z,74.52
2022-10-09T11:33:31.943Z,74.69
2022-10-09T11:36:39.881Z,75.22
2022-10-09T11:39:14.074Z,74.15
2022-10-09T11:41:43.223Z,73.38
2022-10-09T11:44:17.992Z,71.45
2022-10-09T11:47:18.490Z,72.90
2022-10-09T11:49:53.910Z,71.30
2022-10-09T11:53:02.054Z,73.10
2022-10-09T11:55:31.328Z,74.14
2022-10-09T11:58:24.796Z,73.55
2022-10-09T12:00:59.008Z,74.22
2022-10-09T12:03:35.814Z,72.57
2022-10-09T12:06:15.579Z,70.10
2022-10-09T12:09:03.400Z,71.17
2022-10-09T12:11:31.010Z,72.31
2022-10-09T12:14:08.295Z,73.36
2022-10-09T12:16:44.000Z,70.17
2022-10-09T12:19:30.213Z,70.34
2022-10-09T12:21:56.516Z,70.09
2022-10-09T12:24:26.629Z,69.44
2022-10-09T12:26:56.349Z,69.03
2022-10-09T12:29:31.588Z,69.43
2022-10-09T12:32:07.709Z,68.93
2022-10-09T12:34:42.110Z,68.50
2022-10-09T12:37:45.037Z,69.73
2022-10-09T12:40:19.800Z,69.28
2022-10-09T12:42:48.627Z,69.08
2022-10-09T12:45:30.389Z,69.56
2022-10-09T12:48:11.701Z,70.37
2022-10-09T12:50:38.368Z,70.34
2022-10-09T12:53:56.182Z,69.75
2022-10-09T12:56:31.233Z,68.99
2022-10-09T12:58:58.663Z,68.42
2022-10-09T13:01:25.712Z,67.32
2022-10-09T13:03:58.847Z,67.47
2022-10-09T13:06:36.201Z,67.63
2022-10-09T13:09:06.491Z,67.09
2022-10-09T13:11:56.305Z,68.79
2022-10-09T13:14:42.698Z,67.98
2022-10-09T13:20:01.135Z,68.75
2022-10-09T13:22:32.259Z,66.86
2022-10-09T13:25:02.322Z,68.02
2022-10-09T13:27:32.641Z,68.01
2022-10-09T13:30:00.522Z,67.55
2022-10-09T13:32:27.825Z,67.74
2022-10-09T13:34:58.118Z,67.95
2022-10-09T13:37:43.017Z,68.03
2022-10-09T13:40:17.957Z,67.71
2022-10-09T13:42:53.229Z,66.48
2022-10-09T13:45:20.052Z,66.93
2022-10-09T13:47:52.540Z,67.34
2022-10-09T13:50:23.334Z,68.13
2022-10-09T13:52:49.858Z,68.14
2022-10-09T13:55:16.329Z,69.34
2022-10-09T13:57:50.197Z,68.23
2022-10-09T14:00:17.492Z,68.30
2022-10-09T14:02:43.940Z,68.52
2022-10-09T14:05:10.507Z,68.00
2022-10-09T14:07:36.975Z,68.56
2022-10-09T14:10:04.511Z,67.86
2022-10-09T14:12:38.142Z,68.38
2022-10-09T14:15:06.356Z,67.58
2022-10-09T14:17:32.970Z,67.44
2022-10-09T14:19:59.401Z,67.78
2022-10-09T14:22:33.673Z,68.21
2022-10-09T14:25:00.208Z,68.45
2022-10-09T14:27:26.815Z,69.42
2022-10-09T14:29:55.396Z,66.63
2022-10-09T14:32:23.807Z,67.45
2022-10-09T14:34:50.317Z,68.80
2022-10-09T14:37:29.644Z,68.68
2022-10-09T14:40:03.554Z,68.09
2022-10-09T14:42:40.242Z,67.11
2022-10-09T14:45:07.638Z,67.20
2022-10-09T14:47:34.144Z,66.82
2022-10-09T14:50:00.649Z,66.68
2022-10-09T14:52:27.240Z,68.87
2022-10-09T14:54:53.670Z,66.98
2022-10-09T14:57:20.565Z,67.36
2022-10-09T14:59:46.990Z,67.96
2022-10-09T15:02:15.625Z,67.26
2022-10-09T15:04:44.370Z,67.92
2022-10-09T15:07:10.769Z,68.00
2022-10-09T15:09:46.421Z,67.33
2022-10-09T15:12:12.887Z,67.85
2022-10-09T15:14:39.279Z,68.99
2022-10-09T15:17:07.860Z,68.40
2022-10-09T15:19:34.302Z,69.01
2022-10-09T15:22:00.868Z,69.77
2022-10-09T15:24:27.565Z,70.57
2022-10-09T15:26:57.936Z,68.27
2022-10-09T15:29:24.467Z,67.74
2022-10-09T15:31:51.708Z,67.67
2022-10-09T15:34:33.621Z,69.13
2022-10-09T15:37:01.286Z,69.96
2022-10-09T15:39:29.782Z,70.30
2022-10-09T15:41:58.446Z,70.43
2022-10-09T15:44:26.432Z,70.03
2022-10-09T15:46:52.990Z,70.09
2022-10-09T15:49:19.671Z,70.68
2022-10-09T15:51:46.100Z,70.03
2022-10-09T15:54:18.781Z,70.80
2022-10-09T15:56:45.466Z,71.94
2022-10-09T15:59:13.318Z,71.74
2022-10-09T16:01:39.972Z,71.35
2022-10-09T16:04:11.131Z,71.54
2022-10-09T16:06:37.731Z,70.73
2022-10-09T16:09:04.587Z,70.71
2022-10-09T16:11:31.624Z,71.67
2022-10-09T16:13:59.304Z,71.49
2022-10-09T16:16:27.687Z,72.31
2022-10-09T16:18:55.142Z,72.43
2022-10-09T16:21:34.812Z,73.06
2022-10-09T16:24:01.674Z,72.72
2022-10-09T16:26:29.598Z,73.85
2022-10-09T16:31:30.393Z,73.88
2022-10-09T16:34:06.362Z,74.09
2022-10-09T16:36:33.353Z,73.90
2022-10-09T16:39:00.169Z,74.25
2022-10-09T16:41:28.229Z,74.34
2022-10-09T16:44:17.058Z,74.75
2022-10-09T16:46:43.576Z,74.73
2022-10-09T16:49:19.984Z,74.32
2022-10-09T16:51:49.872Z,75.15
2022-10-09T16:54:18.432Z,75.52
2022-10-09T16:56:47.665Z,75.42
2022-10-09T16:59:14.561Z,75.84
2022-10-09T17:01:48.965Z,75.62
2022-10-09T17:04:15.944Z,76.03
2022-10-09T17:06:44.106Z,76.12
2022-10-09T17:09:14.016Z,76.61
2022-10-09T17:11:47.400Z,76.54
2022-10-09T17:14:14.626Z,76.92
2022-10-09T17:16:42.847Z,76.96
2022-10-09T17:19:09.794Z,77.15
2022-10-09T17:21:36.869Z,76.90
2022-10-09T17:24:05.242Z,77.24
2022-10-09T17:26:32.362Z,77.52
2022-10-09T17:29:12.337Z,77.46
2022-10-09T17:31:39.200Z,77.42
2022-10-09T17:34:06.976Z,77.55
2022-10-09T17:36:36.885Z,78.33
2022-10-09T17:39:06.151Z,78.27
2022-10-09T17:41:33.110Z,78.33
2022-10-09T17:44:00.214Z,78.43
2022-10-09T17:46:32.967Z,78.64
2022-10-09T17:49:00.398Z,78.57
2022-10-09T17:51:30.342Z,78.63
2022-10-09T17:54:01.375Z,79.28
2022-10-09T17:56:33.347Z,79.14
2022-10-09T17:59:01.272Z,79.22
2022-10-09T18:01:28.329Z,79.33
2022-10-09T18:03:55.287Z,79.87
2022-10-09T18:06:24.308Z,79.53
2022-10-09T18:08:55.753Z,79.78
2022-10-09T18:11:24.724Z,79.64
2022-10-09T18:13:52.473Z,80.08
2022-10-09T18:16:32.708Z,80.20
2022-10-09T18:19:07.785Z,80.15
2022-10-09T18:21:35.308Z,79.75
2022-10-09T18:24:01.957Z,79.83
2022-10-09T18:26:28.946Z,79.41
2022-10-09T18:28:58.659Z,80.05
2022-10-09T18:31:25.680Z,79.69
2022-10-09T18:33:52.457Z,79.43
2022-10-09T18:36:24.380Z,79.83
2022-10-09T18:38:53.544Z,79.67
2022-10-09T18:41:21.646Z,79.43
2022-10-09T18:43:49.304Z,80.09
2022-10-09T18:46:18.067Z,79.47
2022-10-09T18:48:44.982Z,79.55
2022-10-09T18:51:17.294Z,79.94
2022-10-09T18:53:47.064Z,80.40
2022-10-09T18:56:14.111Z,80.25
2022-10-09T18:58:42.074Z,80.59
2022-10-09T19:01:08.902Z,80.17
2022-10-09T19:03:36.790Z,80.45
2022-10-09T19:06:04.406Z,80.72
2022-10-09T19:08:30.962Z,81.12
2022-10-09T19:10:59.435Z,80.97
2022-10-09T19:13:26.175Z,81.60
2022-10-09T19:15:53.929Z,81.46
2022-10-09T19:18:21.590Z,81.15
2022-10-09T19:20:48.444Z,81.29
2022-10-09T19:23:15.268Z,81.75
2022-10-09T19:25:53.936Z,81.23
2022-10-09T19:28:21.915Z,81.65
2022-10-09T19:30:48.437Z,81.40
2022-10-09T19:33:15.436Z,81.43
2022-10-09T19:35:53.165Z,81.46
2022-10-09T19:38:20.535Z,81.42
2022-10-09T19:40:48.167Z,81.69
2022-10-09T19:43:15.984Z,81.33
2022-10-09T19:45:42.971Z,81.37
2022-10-09T19:48:10.373Z,81.40
2022-10-09T19:50:43.360Z,81.62
2022-10-09T19:53:10.502Z,81.18
2022-10-09T19:55:37.716Z,81.08
2022-10-09T19:58:04.795Z,81.23
2022-10-09T20:00:31.624Z,81.43
2022-10-09T20:02:58.142Z,81.43
2022-10-09T20:05:24.707Z,81.49
2022-10-09T20:07:51.113Z,81.35
2022-10-09T20:10:17.798Z,81.73
2022-10-09T20:12:44.382Z,81.23
2022-10-09T20:15:14.143Z,81.56
2022-10-09T20:17:40.625Z,81.89
2022-10-09T20:20:07.716Z,81.37
2022-10-09T20:22:34.349Z,81.46
2022-10-09T20:25:00.888Z,81.97
2022-10-09T20:27:27.561Z,81.49
2022-10-09T20:29:54.315Z,82.14
2022-10-09T20:32:25.068Z,81.77
2022-10-09T20:34:52.334Z,81.88
2022-10-09T20:37:18.854Z,81.79
2022-10-09T20:39:45.634Z,82.01
2022-10-09T20:42:12.148Z,81.95
2022-10-09T20:44:38.720Z,81.74
2022-10-09T20:47:05.440Z,82.39
2022-10-09T20:49:32.116Z,82.49
2022-10-09T20:51:59.039Z,82.52
2022-10-09T20:54:26.168Z,82.44
2022-10-09T20:56:52.788Z,82.33
2022-10-09T20:59:19.625Z,82.58
2022-10-09T21:01:46.493Z,82.39
2022-10-09T21:04:14.859Z,82.42
2022-10-09T21:06:41.843Z,82.54
2022-10-09T21:09:12.585Z,82.53
2022-10-09T21:11:41.559Z,82.49
2022-10-09T21:14:09.942Z,82.14
2022-10-09T21:16:37.667Z,81.75
2022-10-09T21:19:05.316Z,82.27
2022-10-09T21:21:33.431Z,82.53
2022-10-09T21:24:01.134Z,82.79
2022-10-09T21:26:29.644Z,81.79
2022-10-09T21:28:59.572Z,82.13
2022-10-09T21:31:29.626Z,82.28
2022-10-09T21:33:59.309Z,82.58
2022-10-09T21:36:30.733Z,81.97
2022-10-09T21:38:57.631Z,81.87
2022-10-09T21:41:24.690Z,82.22
2022-10-09T21:43:51.607Z,81.95
2022-10-09T21:46:20.337Z,82.34
2022-10-09T21:48:47.254Z,82.05
2022-10-09T21:51:13.958Z,82.12
2022-10-09T21:53:40.611Z,81.88
2022-10-09T21:56:10.133Z,81.70
2022-10-09T21:58:39.020Z,82.18
2022-10-09T22:01:06.424Z,82.21
2022-10-09T22:03:35.179Z,81.80
2022-10-09T22:06:09.390Z,81.95
2022-10-09T22:08:44.799Z,81.46
2022-10-09T22:11:11.809Z,81.59
2022-10-09T22:13:44.561Z,81.94
2022-10-09T22:16:13.983Z,81.54
2022-10-09T22:18:40.970Z,81.86
2022-10-09T22:21:13.019Z,81.75
2022-10-09T22:23:51.332Z,81.42
2022-10-09T22:26:20.669Z,81.85
2022-10-09T22:28:48.418Z,82.33
2022-10-09T22:31:26.331Z,81.75
2022-10-09T22:34:01.074Z,81.88
2022-10-09T22:36:32.734Z,81.87
2022-10-09T22:39:07.607Z,82.02
2022-10-09T22:41:36.220Z,81.96
2022-10-09T22:44:06.509Z,81.99
2022-10-09T22:46:41.753Z,81.89
2022-10-09T22:49:11.620Z,82.42
2022-10-09T22:51:38.194Z,82.16
2022-10-09T22:54:06.066Z,82.01
2022-10-09T22:56:35.573Z,82.10
2022-10-09T22:59:06.598Z,82.51
2022-10-09T23:01:37.265Z,81.97
2022-10-09T23:04:11.197Z,81.97
2022-10-09T23:06:38.352Z,82.12
2022-10-09T23:09:06.957Z,82.30
2022-10-09T23:11:33.902Z,82.06
2022-10-09T23:14:01.054Z,82.52
2022-10-09T23:16:29.617Z,82.03
2022-10-09T23:18:57.954Z,82.48
2022-10-09T23:21:27.002Z,82.29
2022-10-09T23:23:55.081Z,82.90
2022-10-09T23:26:24.254Z,82.48
2022-10-09T23:28:57.270Z,82.96
2022-10-09T23:31:24.884Z,82.52
2022-10-09T23:33:51.477Z,83.08
2022-10-09T23:36:21.433Z,82.81
2022-10-09T23:38:48.765Z,83.06
2022-10-09T23:41:18.452Z,82.83
2022-10-09T23:43:47.131Z,82.51
2022-10-09T23:46:16.495Z,83.17
2022-10-09T23:48:44.247Z,83.12
2022-10-09T23:51:11.407Z,82.92
2022-10-09T23:53:38.184Z,83.28
2022-10-09T23:56:21.519Z,83.18
2022-10-09T23:58:48.373Z,83.00
